Time;durP1;ratioP1;P1;durP2;ratioP2;P2;SDS_P1;SDS_P2;PMS_P1;PMS_P2;Temp;Humidity;BMP_temperature;BMP_pressure;BME280_temperature;BME280_humidity;BME280_pressure;Samples;Min_cycle;Max_cycle;Signal;HPM_P1;HPM_P2
2022/02/28 00:01:14;;;;;;;15.38;6.13;;;;;;;-1.42;68.99;97812.50;2077278;28;20789;-59
2022/02/28 00:02:16;;;;;;;9.90;5.85;;;;;;;-1.51;69.03;97821.13;2077853;28;20192;-59
2022/02/28 00:03:18;;;;;;;13.13;5.60;;;;;;;-1.50;68.99;97817.66;2077591;28;20571;-59
2022/02/28 00:04:21;;;;;;;12.57;6.13;;;;;;;-1.52;69.45;97813.41;2077596;28;20196;-59
2022/02/28 00:05:23;;;;;;;12.10;6.45;;;;;;;-1.63;69.44;97818.53;2076322;28;20711;-59
2022/02/28 00:06:25;;;;;;;12.68;6.55;;;;;;;-1.58;69.87;97814.25;2078153;28;20746;-59
2022/02/28 00:07:26;;;;;;;14.63;6.65;;;;;;;-1.58;69.70;97811.69;2078402;28;20204;-60
2022/02/28 00:08:28;;;;;;;15.00;6.35;;;;;;;-1.53;68.99;97809.97;2075734;28;20214;-59
2022/02/28 00:09:30;;;;;;;13.45;6.40;;;;;;;-1.55;69.14;97810.81;2075630;28;20196;-59
2022/02/28 00:10:31;;;;;;;9.40;6.40;;;;;;;-1.48;69.49;97812.53;2076346;28;20195;-59
2022/02/28 00:11:32;;;;;;;14.23;6.85;;;;;;;-1.65;69.44;97808.25;2077437;28;20206;-59
2022/02/28 00:12:34;;;;;;;9.75;5.70;;;;;;;-1.63;69.71;97815.97;2077296;28;20203;-59
2022/02/28 00:13:36;;;;;;;17.10;7.20;;;;;;;-1.64;69.59;97806.56;2076733;28;20190;-59
2022/02/28 00:14:37;;;;;;;10.93;6.78;;;;;;;-1.65;69.48;97815.13;2075962;28;20575;-58
2022/02/28 00:15:39;;;;;;;11.07;6.10;;;;;;;-1.71;69.91;97820.25;2079155;28;20210;-59
2022/02/28 00:16:41;;;;;;;12.98;6.93;;;;;;;-1.70;69.70;97822.84;2077082;28;20208;-59
2022/02/28 00:17:43;;;;;;;10.65;5.72;;;;;;;-1.62;69.99;97820.25;2078301;28;20227;-59
2022/02/28 00:18:45;;;;;;;17.02;7.03;;;;;;;-1.72;69.88;97821.13;2075638;28;20211;-59
2022/02/28 00:19:46;;;;;;;15.38;6.80;;;;;;;-1.72;69.97;97819.41;2075312;28;20218;-59
2022/02/28 00:20:48;;;;;;;13.90;7.30;;;;;;;-1.74;69.64;97817.72;2075974;28;20219;-59
2022/02/28 00:21:50;;;;;;;12.63;7.10;;;;;;;-1.72;69.70;97823.69;2075432;28;20200;-59
2022/02/28 00:22:51;;;;;;;16.00;6.68;;;;;;;-1.86;70.31;97816.84;2079140;28;20203;-60
2022/02/28 00:23:53;;;;;;;12.40;6.50;;;;;;;-1.95;70.26;97816.00;2077576;28;20201;-59
2022/02/28 00:24:54;;;;;;;13.30;6.38;;;;;;;-2.07;70.74;97810.00;2078225;28;20230;-59
2022/02/28 00:25:56;;;;;;;10.90;6.60;;;;;;;-2.02;70.61;97815.13;2076616;28;20210;-59
2022/02/28 00:26:57;;;;;;;17.08;6.68;;;;;;;-1.94;70.19;97818.56;2077843;28;20203;-59
2022/02/28 00:28:00;;;;;;;12.13;6.45;;;;;;;-1.91;70.32;97813.41;2078816;28;20198;-59
2022/02/28 00:29:03;;;;;;;14.30;6.05;;;;;;;-1.91;70.72;97812.56;2079412;28;20629;-59
2022/02/28 00:30:07;;;;;;;11.50;6.18;;;;;;;-1.97;70.92;97816.00;2074026;28;20223;-59
2022/02/28 00:31:09;;;;;;;11.32;5.57;;;;;;;-2.02;70.82;97815.13;2075205;28;20207;-59
2022/02/28 00:32:10;;;;;;;13.93;6.47;;;;;;;-2.00;70.56;97804.00;2072916;28;20649;-59
2022/02/28 00:33:12;;;;;;;12.40;6.30;;;;;;;-1.96;70.49;97810.00;2074266;28;20695;-59
2022/02/28 00:34:13;;;;;;;12.70;6.80;;;;;;;-1.99;70.47;97804.84;2074688;28;20308;-59
2022/02/28 00:35:15;;;;;;;13.32;6.82;;;;;;;-2.00;70.90;97805.69;2076818;28;20258;-58
2022/02/28 00:36:16;;;;;;;9.45;5.93;;;;;;;-1.91;70.63;97808.28;2076837;28;20298;-59
2022/02/28 00:37:18;;;;;;;9.95;5.80;;;;;;;-2.04;71.07;97804.00;2077730;28;20757;-59
2022/02/28 00:38:20;;;;;;;15.70;7.03;;;;;;;-2.17;71.36;97804.88;2076291;28;20200;-58
2022/02/28 00:39:22;;;;;;;11.30;6.13;;;;;;;-2.16;71.56;97796.28;2075282;28;20651;-59
2022/02/28 00:40:23;;;;;;;12.63;6.82;;;;;;;-2.11;71.55;97804.88;2076898;28;20670;-59
2022/02/28 00:41:25;;;;;;;11.85;6.32;;;;;;;-2.07;71.39;97799.72;2079607;28;20218;-59
2022/02/28 00:42:26;;;;;;;15.13;6.63;;;;;;;-1.99;71.27;97797.16;2073106;28;20199;-58
2022/02/28 00:43:28;;;;;;;13.98;6.15;;;;;;;-2.16;71.59;97797.13;2072189;28;20207;-59
2022/02/28 00:44:29;;;;;;;12.40;6.05;;;;;;;-2.23;72.07;97796.28;2074651;28;20202;-59
2022/02/28 00:45:31;;;;;;;12.05;6.47;;;;;;;-2.21;71.95;97799.72;2076239;28;20203;-59
2022/02/28 00:46:32;;;;;;;10.15;6.15;;;;;;;-2.07;71.84;97794.59;2077376;28;20200;-59
2022/02/28 00:47:34;;;;;;;11.98;6.30;;;;;;;-2.06;71.54;97798.00;2076327;28;20196;-59
2022/02/28 00:48:36;;;;;;;10.27;6.00;;;;;;;-2.11;71.89;97786.91;2076783;28;20240;-58
2022/02/28 00:49:37;;;;;;;12.45;6.43;;;;;;;-2.01;71.91;97798.88;2074266;28;20207;-59
2022/02/28 00:50:39;;;;;;;10.73;5.28;;;;;;;-2.08;71.95;97799.72;2075779;28;20210;-59
2022/02/28 00:51:40;;;;;;;11.63;5.97;;;;;;;-2.05;71.97;97799.72;2078496;28;20194;-59
2022/02/28 00:52:42;;;;;;;12.18;6.10;;;;;;;-2.10;71.74;97796.28;2079156;28;20543;-59
2022/02/28 00:53:43;;;;;;;13.10;6.38;;;;;;;-2.12;71.46;97798.84;2075589;28;20707;-59
2022/02/28 00:54:45;;;;;;;10.95;5.95;;;;;;;-2.16;71.87;97797.13;2077110;28;20704;-59
2022/02/28 00:55:46;;;;;;;11.23;6.78;;;;;;;-2.19;72.30;97792.88;2075156;28;20203;-59
2022/02/28 00:56:48;;;;;;;13.70;6.97;;;;;;;-2.27;72.19;97789.44;2075796;28;20204;-59
2022/02/28 00:57:49;;;;;;;10.25;5.90;;;;;;;-2.24;72.54;97798.84;2079628;28;20668;-59
2022/02/28 00:58:51;;;;;;;9.95;5.45;;;;;;;-2.28;72.59;97795.41;2077248;28;20204;-58
2022/02/28 00:59:52;;;;;;;13.85;6.50;;;;;;;-2.33;73.12;97802.28;2078054;28;20227;-59
2022/02/28 01:00:54;;;;;;;11.82;5.90;;;;;;;-2.23;72.88;97800.56;2076898;28;20550;-59
2022/02/28 01:01:55;;;;;;;9.68;6.00;;;;;;;-2.23;72.84;97801.44;2077957;28;20199;-59
2022/02/28 01:02:57;;;;;;;13.52;5.97;;;;;;;-2.22;72.71;97792.84;2078417;28;20284;-59
2022/02/28 01:03:59;;;;;;;11.27;6.45;;;;;;;-2.28;72.65;97800.56;2076794;28;20214;-58
2022/02/28 01:05:01;;;;;;;13.35;6.28;;;;;;;-2.30;73.23;97802.25;2076278;28;20689;-59
2022/02/28 01:06:02;;;;;;;14.10;6.40;;;;;;;-2.34;72.90;97800.53;2077029;28;20206;-59
2022/02/28 01:07:05;;;;;;;11.63;6.70;;;;;;;-2.34;72.93;97797.97;2076109;28;20724;-59
2022/02/28 01:08:06;;;;;;;11.43;6.68;;;;;;;-2.20;72.02;97798.84;2075923;28;20648;-58
2022/02/28 01:09:08;;;;;;;15.90;6.18;;;;;;;-2.19;71.82;97802.28;2077449;28;20234;-58
2022/02/28 01:10:12;;;;;;;15.07;7.40;;;;;;;-2.21;71.48;97794.56;2075812;28;20227;-59
2022/02/28 01:11:13;;;;;;;10.00;5.55;;;;;;;-2.30;71.90;97794.56;2074987;28;20193;-59
2022/02/28 01:12:15;;;;;;;11.05;6.28;;;;;;;-2.21;71.59;97802.28;2074921;28;20204;-59
2022/02/28 01:13:17;;;;;;;15.35;6.15;;;;;;;-2.18;71.58;97803.97;2076980;28;20195;-59
2022/02/28 01:14:21;;;;;;;14.82;6.35;;;;;;;-2.25;71.87;97798.00;2076345;28;20191;-59
2022/02/28 01:15:23;;;;;;;10.52;6.47;;;;;;;-2.12;71.63;97798.84;2072599;28;20222;-59
2022/02/28 01:16:25;;;;;;;10.63;6.15;;;;;;;-2.23;71.34;97801.44;2078976;28;20542;-59
2022/02/28 01:17:26;;;;;;;11.15;5.95;;;;;;;-2.23;71.67;97793.72;2074874;28;20195;-59
2022/02/28 01:18:28;;;;;;;11.18;6.63;;;;;;;-2.24;71.90;97788.59;2077128;28;20203;-59
2022/02/28 01:19:29;;;;;;;11.05;7.00;;;;;;;-2.26;72.31;97798.84;2074366;28;20212;-59
2022/02/28 01:20:31;;;;;;;14.32;6.97;;;;;;;-2.30;72.74;97794.56;2076991;28;20202;-59
2022/02/28 01:21:33;;;;;;;13.80;5.95;;;;;;;-2.34;72.50;97792.00;2075514;28;20218;-59
2022/02/28 01:22:34;;;;;;;13.65;6.95;;;;;;;-2.43;72.65;97790.25;2077030;28;20210;-59
2022/02/28 01:23:39;;;;;;;11.38;6.78;;;;;;;-2.35;72.60;97806.56;2076879;28;20199;-59
2022/02/28 01:24:42;;;;;;;11.63;5.00;;;;;;;-2.29;71.87;97793.72;2076196;28;20643;-59
2022/02/28 01:25:43;;;;;;;11.93;6.15;;;;;;;-2.27;72.01;97799.72;2076709;28;20203;-59
2022/02/28 01:26:45;;;;;;;11.07;6.15;;;;;;;-2.24;71.74;97788.59;2077423;28;20205;-59
2022/02/28 01:27:47;;;;;;;11.02;5.80;;;;;;;-2.19;71.43;97795.44;2076257;28;20207;-59
2022/02/28 01:28:48;;;;;;;10.90;6.03;;;;;;;-2.20;71.35;97785.16;2073615;28;20210;-58
2022/02/28 01:29:50;;;;;;;13.63;6.22;;;;;;;-2.13;71.48;97789.47;2075536;28;20245;-58
2022/02/28 01:30:51;;;;;;;11.23;6.55;;;;;;;-2.13;71.14;97784.31;2076762;28;20221;-59
2022/02/28 01:31:53;;;;;;;11.05;5.70;;;;;;;-2.17;71.34;97790.31;2076560;28;20201;-59
2022/02/28 01:32:54;;;;;;;13.75;6.88;;;;;;;-2.13;71.23;97783.47;2077980;28;20542;-59
2022/02/28 01:33:56;;;;;;;14.18;6.13;;;;;;;-2.16;71.14;97786.88;2074505;28;20202;-59
2022/02/28 01:34:57;;;;;;;10.82;6.63;;;;;;;-2.12;71.46;97786.00;2076226;28;20227;-59
2022/02/28 01:36:00;;;;;;;13.13;6.78;;;;;;;-2.14;71.19;97785.16;2078426;28;20666;-60
2022/02/28 01:37:02;;;;;;;11.65;6.07;;;;;;;-2.07;71.34;97788.59;2076750;28;20203;-58
2022/02/28 01:38:03;;;;;;;11.40;6.80;;;;;;;-2.07;71.14;97786.88;2075407;28;20224;-60
2022/02/28 01:39:05;;;;;;;12.32;6.60;;;;;;;-2.07;70.34;97781.75;2077652;28;20195;-59
2022/02/28 01:40:09;;;;;;;14.05;6.75;;;;;;;-2.05;70.81;97786.88;2075205;28;20223;-59
2022/02/28 01:41:10;;;;;;;10.90;6.55;;;;;;;-2.02;70.42;97785.19;2077356;28;20285;-58
2022/02/28 01:42:13;;;;;;;11.20;5.80;;;;;;;-2.06;71.09;97785.16;2076519;28;20193;-59
2022/02/28 01:43:15;;;;;;;10.23;5.95;;;;;;;-2.20;71.27;97780.03;2076102;28;20488;-58
2022/02/28 01:44:17;;;;;;;10.35;5.72;;;;;;;-2.15;71.47;97787.75;2075487;28;20574;-59
2022/02/28 01:45:22;;;;;;;13.10;6.50;;;;;;;-2.19;71.35;97787.72;2075246;28;20617;-59
2022/02/28 01:46:24;;;;;;;12.40;6.25;;;;;;;-2.14;71.44;97790.28;2075544;28;20211;-59
2022/02/28 01:47:25;;;;;;;14.23;6.28;;;;;;;-2.22;71.61;97776.59;2073453;28;20827;-59
2022/02/28 01:48:27;;;;;;;14.63;6.60;;;;;;;-2.17;71.14;97784.31;2078802;28;20206;-59
2022/02/28 01:49:28;;;;;;;12.40;6.35;;;;;;;-2.22;71.36;97789.44;2073300;28;20694;-59
2022/02/28 01:50:32;;;;;;;11.52;6.25;;;;;;;-2.25;71.68;97787.72;2078046;28;20199;-59
2022/02/28 01:51:38;;;;;;;15.20;6.13;;;;;;;-2.29;71.67;97783.47;2076277;28;20210;-59
2022/02/28 01:52:40;;;;;;;12.73;5.75;;;;;;;-2.37;71.33;97785.16;2077116;28;20202;-59
2022/02/28 01:53:41;;;;;;;11.88;5.72;;;;;;;-2.52;71.71;97782.56;2076892;28;20200;-59
2022/02/28 01:54:45;;;;;;;15.40;7.25;;;;;;;-2.71;72.44;97779.94;2074327;28;20705;-59
2022/02/28 01:55:47;;;;;;;12.15;6.65;;;;;;;-2.86;72.65;97751.69;2074930;28;20202;-58
2022/02/28 01:56:48;;;;;;;9.90;5.88;;;;;;;-2.69;72.80;97780.81;2077725;28;20197;-59
2022/02/28 01:57:51;;;;;;;11.52;6.07;;;;;;;-2.80;73.31;97773.09;2075708;28;20225;-59
2022/02/28 01:58:52;;;;;;;12.65;5.45;;;;;;;-2.75;73.39;97778.22;2076690;28;20660;-59
2022/02/28 01:59:54;;;;;;;14.50;6.32;;;;;;;-2.63;72.57;97774.84;2077304;28;20218;-59
2022/02/28 02:00:56;;;;;;;11.88;6.65;;;;;;;-2.72;72.64;97764.56;2075257;28;20207;-58
2022/02/28 02:01:57;;;;;;;9.65;5.78;;;;;;;-2.63;72.61;97767.13;2077642;28;20210;-59
2022/02/28 02:03:00;;;;;;;11.93;6.35;;;;;;;-2.61;72.23;97774.00;2075615;28;20210;-58
2022/02/28 02:04:01;;;;;;;12.50;5.55;;;;;;;-2.77;72.70;97764.53;2076220;28;20211;-59
2022/02/28 02:05:04;;;;;;;12.57;6.88;;;;;;;-2.80;73.19;97775.66;2075514;28;20610;-58
2022/02/28 02:06:09;;;;;;;11.90;6.05;;;;;;;-2.71;73.12;97771.41;2078131;28;20207;-59
2022/02/28 02:07:10;;;;;;;11.82;5.97;;;;;;;-2.73;73.10;97778.22;2078879;28;20199;-59
2022/02/28 02:08:11;;;;;;;13.18;7.05;;;;;;;-2.74;73.42;97777.38;2078509;28;20198;-59
2022/02/28 02:09:14;;;;;;;10.30;6.13;;;;;;;-2.84;74.23;97776.50;2076154;28;20206;-58
2022/02/28 02:10:16;;;;;;;11.25;5.95;;;;;;;-2.80;74.12;97778.22;2074128;28;20234;-61
2022/02/28 02:11:19;;;;;;;11.30;5.82;;;;;;;-2.87;73.69;97775.63;2075175;28;20210;-58
2022/02/28 02:12:20;;;;;;;14.82;5.05;;;;;;;-2.91;73.73;97779.88;2074723;28;20195;-58
2022/02/28 02:13:22;;;;;;;10.80;5.43;;;;;;;-2.94;73.97;97784.16;2074851;28;20287;-58
2022/02/28 02:14:25;;;;;;;10.25;5.55;;;;;;;-3.01;73.62;97778.16;2075953;28;20190;-57
2022/02/28 02:15:27;;;;;;;11.18;6.45;;;;;;;-3.00;73.78;97784.97;2074690;28;20649;-58
2022/02/28 02:16:28;;;;;;;14.57;6.35;;;;;;;-2.94;74.11;97784.16;2077361;28;20558;-58
2022/02/28 02:17:30;;;;;;;13.48;5.63;;;;;;;-2.91;73.88;97784.16;2077319;28;20199;-58
2022/02/28 02:18:32;;;;;;;13.18;6.75;;;;;;;-2.96;74.03;97785.84;2075763;28;20224;-58
2022/02/28 02:19:36;;;;;;;13.27;7.20;;;;;;;-2.93;73.97;97781.59;2075185;28;20205;-58
2022/02/28 02:20:40;;;;;;;10.65;6.43;;;;;;;-2.89;73.57;97779.91;2074313;28;20230;-58
2022/02/28 02:21:42;;;;;;;11.55;5.85;;;;;;;-2.95;73.93;97792.69;2076810;28;20205;-58
2022/02/28 02:22:56;;;;;;;13.18;6.97;;;;;;;-2.98;74.17;97798.66;2076049;28;20206;-58
2022/02/28 02:23:57;;;;;;;17.50;6.00;;;;;;;-3.03;74.08;97777.28;2078616;28;20204;-58
2022/02/28 02:25:00;;;;;;;17.40;7.07;;;;;;;-2.96;74.35;97783.28;2077564;28;20785;-58
2022/02/28 02:26:01;;;;;;;14.77;7.10;;;;;;;-3.05;74.50;97791.81;2076590;28;20203;-58
2022/02/28 02:27:04;;;;;;;10.43;6.00;;;;;;;-3.08;74.27;97790.06;2074753;28;20217;-57
2022/02/28 02:28:07;;;;;;;11.80;6.35;;;;;;;-3.10;74.51;97791.78;2081666;28;20206;-58
2022/02/28 02:29:08;;;;;;;9.63;5.10;;;;;;;-3.13;74.26;97776.41;2083875;28;20763;-57
2022/02/28 02:30:10;;;;;;;13.80;8.55;;;;;;;-3.00;74.21;97793.53;2078010;28;20234;-57
2022/02/28 02:31:12;;;;;;;14.98;6.70;;;;;;;-3.02;74.16;97797.81;2075808;28;20243;-58
2022/02/28 02:32:16;;;;;;;13.02;7.05;;;;;;;-3.11;74.92;97787.50;2076217;28;20190;-58
2022/02/28 02:33:18;;;;;;;22.50;7.55;;;;;;;-3.11;74.82;97794.34;2074185;28;20645;-58
2022/02/28 02:34:20;;;;;;;17.52;7.95;;;;;;;-3.35;75.06;97793.38;2075021;28;20202;-57
2022/02/28 02:35:21;;;;;;;11.85;7.70;;;;;;;-3.47;76.12;97799.28;2075319;28;20221;-58
2022/02/28 02:36:23;;;;;;;13.10;7.10;;;;;;;-3.39;75.95;97795.06;2078878;28;20199;-58
2022/02/28 02:37:24;;;;;;;11.40;7.10;;;;;;;-3.21;75.34;97796.88;2077086;28;20198;-58
2022/02/28 02:38:27;;;;;;;14.88;7.38;;;;;;;-3.16;74.45;97788.34;2077387;28;20214;-58
2022/02/28 02:39:29;;;;;;;15.27;6.93;;;;;;;-3.10;73.81;97794.34;2073513;28;20199;-57
2022/02/28 02:40:30;;;;;;;13.20;6.80;;;;;;;-3.19;74.14;97789.19;2076280;28;20198;-58
2022/02/28 02:41:32;;;;;;;19.35;7.03;;;;;;;-3.36;74.84;97794.22;2076615;28;20197;-57
2022/02/28 02:42:33;;;;;;;13.63;7.80;;;;;;;-3.47;75.27;97795.84;2076109;28;20213;-57
2022/02/28 02:43:35;;;;;;;15.25;7.45;;;;;;;-3.40;75.55;97789.94;2077847;28;20644;-57
2022/02/28 02:44:37;;;;;;;15.48;6.47;;;;;;;-3.51;75.71;97789.84;2075430;28;20736;-57
2022/02/28 02:45:39;;;;;;;12.15;6.43;;;;;;;-3.49;75.94;97803.56;2076634;28;20209;-58
2022/02/28 02:46:47;;;;;;;15.00;7.50;;;;;;;-3.55;76.05;97795.81;2078952;28;20208;-58
2022/02/28 02:47:49;;;;;;;17.85;7.70;;;;;;;-3.65;76.92;97791.47;2075617;28;20201;-57
2022/02/28 02:48:50;;;;;;;11.98;6.90;;;;;;;-3.58;76.53;97790.69;2077290;28;20202;-58
2022/02/28 02:49:52;;;;;;;16.27;7.70;;;;;;;-3.61;76.67;97783.84;2073865;28;20407;-58
2022/02/28 02:50:54;;;;;;;19.67;8.38;;;;;;;-3.57;76.63;97794.94;2076200;28;20197;-58
2022/02/28 02:51:55;;;;;;;18.42;7.47;;;;;;;-3.58;76.48;97800.94;2076264;28;20669;-58
2022/02/28 02:52:57;;;;;;;14.57;8.00;;;;;;;-3.54;76.31;97794.13;2077738;28;20194;-57
2022/02/28 02:53:58;;;;;;;17.23;7.45;;;;;;;-3.52;75.87;97787.31;2076441;28;20307;-57
2022/02/28 02:55:00;;;;;;;19.85;9.35;;;;;;;-3.52;76.17;97785.59;2076710;28;20233;-58
2022/02/28 02:56:02;;;;;;;14.05;8.00;;;;;;;-3.43;76.22;97790.78;2075001;28;20209;-57
2022/02/28 02:57:04;;;;;;;15.38;8.25;;;;;;;-3.44;76.50;97789.06;2077239;28;20201;-58
2022/02/28 02:58:05;;;;;;;15.98;8.82;;;;;;;-3.39;76.59;97783.97;2074255;28;20194;-57
2022/02/28 02:59:07;;;;;;;15.50;7.70;;;;;;;-3.39;75.89;97779.69;2075179;28;20207;-58
2022/02/28 03:00:13;;;;;;;13.98;8.50;;;;;;;-3.52;76.18;97785.59;2074460;28;20250;-58
2022/02/28 03:01:14;;;;;;;16.98;8.52;;;;;;;-3.54;76.42;97777.03;2072841;28;20208;-58
2022/02/28 03:02:17;;;;;;;16.40;7.63;;;;;;;-3.51;77.10;97781.31;2075759;28;20224;-58
2022/02/28 03:03:21;;;;;;;17.73;8.68;;;;;;;-3.53;77.02;97780.47;2076537;28;20201;-58
2022/02/28 03:04:23;;;;;;;17.02;8.50;;;;;;;-3.41;76.03;97778.84;2076311;28;20246;-58
2022/02/28 03:05:24;;;;;;;18.83;8.90;;;;;;;-3.36;76.50;97780.56;2074042;28;20241;-57
2022/02/28 03:06:26;;;;;;;18.83;8.95;;;;;;;-3.36;76.01;97778.84;2076365;28;20212;-57
2022/02/28 03:07:28;;;;;;;19.85;8.20;;;;;;;-3.48;76.20;97777.06;2073281;28;20194;-57
2022/02/28 03:08:29;;;;;;;14.80;7.75;;;;;;;-3.48;75.97;97781.34;2076714;28;20201;-57
2022/02/28 03:09:32;;;;;;;12.98;7.60;;;;;;;-3.39;75.57;97771.16;2077100;28;20722;-58
2022/02/28 03:10:34;;;;;;;12.55;7.25;;;;;;;-3.46;75.99;97770.25;2075014;28;20204;-57
2022/02/28 03:11:35;;;;;;;15.85;8.13;;;;;;;-3.45;75.98;97777.09;2076810;28;20205;-58
2022/02/28 03:12:39;;;;;;;18.27;7.70;;;;;;;-3.48;75.78;97774.50;2076604;28;20194;-58
2022/02/28 03:13:40;;;;;;;12.80;7.28;;;;;;;-3.52;75.92;97774.50;2075815;28;20209;-58
2022/02/28 03:14:42;;;;;;;15.45;7.22;;;;;;;-3.48;75.73;97771.94;2076261;28;20193;-57
2022/02/28 03:15:43;;;;;;;14.35;6.53;;;;;;;-3.35;75.45;97766.88;2076243;28;20201;-57
2022/02/28 03:16:44;;;;;;;13.77;7.05;;;;;;;-3.41;75.72;97768.59;2076029;28;20198;-57
2022/02/28 03:17:46;;;;;;;15.70;7.88;;;;;;;-3.45;75.54;97764.28;2077012;28;20220;-58
2022/02/28 03:18:48;;;;;;;14.70;7.78;;;;;;;-3.43;75.56;97775.41;2075478;28;20664;-58
2022/02/28 03:19:49;;;;;;;13.32;6.95;;;;;;;-3.28;75.59;97774.59;2075459;28;20711;-58
2022/02/28 03:20:51;;;;;;;11.25;6.75;;;;;;;-3.22;75.28;97774.63;2074825;28;20546;-57
2022/02/28 03:21:52;;;;;;;16.60;7.03;;;;;;;-3.23;75.24;97777.22;2075762;28;20197;-58
2022/02/28 03:22:54;;;;;;;22.25;7.05;;;;;;;-3.28;75.29;97778.88;2075432;28;20221;-58
2022/02/28 03:23:56;;;;;;;15.38;6.78;;;;;;;-3.32;75.00;97772.88;2076377;28;20193;-58
2022/02/28 03:24:59;;;;;;;14.43;8.15;;;;;;;-3.19;74.88;97773.81;2070401;28;20256;-58
2022/02/28 03:26:01;;;;;;;14.13;6.68;;;;;;;-3.11;74.63;97776.41;2074380;28;20210;-57
2022/02/28 03:27:03;;;;;;;16.33;8.07;;;;;;;-3.29;74.90;97778.03;2074828;28;20204;-57
2022/02/28 03:28:04;;;;;;;12.35;6.72;;;;;;;-3.35;75.28;97774.56;2074799;28;20677;-57
2022/02/28 03:29:06;;;;;;;11.05;6.53;;;;;;;-3.44;75.32;97778.81;2078261;28;20718;-58
2022/02/28 03:30:09;;;;;;;14.07;7.53;;;;;;;-3.49;75.39;97788.19;2075833;28;20239;-57
2022/02/28 03:31:11;;;;;;;16.50;7.20;;;;;;;-3.43;75.19;97793.34;2075788;28;20198;-57
2022/02/28 03:32:12;;;;;;;12.52;6.57;;;;;;;-3.49;75.40;97789.88;2075018;28;20242;-57
2022/02/28 03:33:14;;;;;;;16.10;9.32;;;;;;;-3.41;75.04;97793.31;2076026;28;20190;-57
2022/02/28 03:34:15;;;;;;;11.15;7.18;;;;;;;-3.21;74.45;97793.44;2075349;28;20205;-57
2022/02/28 03:35:16;;;;;;;12.75;7.78;;;;;;;-3.42;74.67;97797.59;2075184;28;20585;-58
2022/02/28 03:36:18;;;;;;;12.40;7.25;;;;;;;-3.52;74.93;97795.84;2076404;28;20200;-58
2022/02/28 03:37:19;;;;;;;15.27;7.15;;;;;;;-3.50;75.22;97794.16;2079637;28;20683;-57
2022/02/28 03:38:21;;;;;;;17.08;7.53;;;;;;;-3.54;74.68;97784.72;2075192;28;20231;-57
2022/02/28 03:39:23;;;;;;;15.18;7.50;;;;;;;-3.57;74.80;97789.81;2075704;28;20194;-58
2022/02/28 03:40:24;;;;;;;12.55;6.55;;;;;;;-3.76;75.01;97788.88;2077386;28;20568;-57
2022/02/28 03:41:26;;;;;;;10.90;6.88;;;;;;;-3.87;75.42;97798.16;2076640;28;20664;-57
2022/02/28 03:42:27;;;;;;;12.13;6.50;;;;;;;-3.90;75.42;97793.88;2073784;28;20214;-57
2022/02/28 03:43:29;;;;;;;11.52;6.55;;;;;;;-3.78;75.34;97793.13;2074347;28;20693;-58
2022/02/28 03:44:30;;;;;;;12.73;7.00;;;;;;;-3.70;75.90;97798.28;2075206;28;20197;-57
2022/02/28 03:45:33;;;;;;;10.57;6.65;;;;;;;-3.82;75.63;97787.13;2075351;28;20585;-58
2022/02/28 03:46:34;;;;;;;14.50;6.05;;;;;;;-3.83;75.81;97793.06;2077566;28;20214;-58
2022/02/28 03:47:37;;;;;;;16.42;7.80;;;;;;;-3.83;75.55;97785.38;2075455;28;20201;-58
2022/02/28 03:48:38;;;;;;;12.40;6.72;;;;;;;-3.93;75.93;97787.88;2074749;28;20206;-57
2022/02/28 03:49:40;;;;;;;10.43;6.80;;;;;;;-3.99;75.82;97784.44;2075983;28;20193;-57
2022/02/28 03:50:41;;;;;;;12.82;6.65;;;;;;;-3.96;76.27;97786.13;2076302;28;20551;-58
2022/02/28 03:51:43;;;;;;;15.32;6.80;;;;;;;-3.94;75.87;97779.34;2077709;28;20305;-57
2022/02/28 03:52:45;;;;;;;9.75;6.22;;;;;;;-3.93;76.02;97783.63;2073336;28;20217;-58
2022/02/28 03:53:46;;;;;;;14.25;8.27;;;;;;;-3.84;75.83;97786.25;2073687;28;20541;-58
2022/02/28 03:54:48;;;;;;;13.93;7.65;;;;;;;-3.78;75.44;97778.59;2074597;28;20233;-58
2022/02/28 03:55:49;;;;;;;11.73;6.72;;;;;;;-3.68;74.74;97784.66;2075884;28;20620;-57
2022/02/28 03:56:51;;;;;;;13.07;8.48;;;;;;;-3.74;74.93;97784.63;2078632;28;20198;-57
2022/02/28 03:57:52;;;;;;;17.73;7.60;;;;;;;-3.83;75.57;97787.09;2075457;28;20252;-57
2022/02/28 03:58:54;;;;;;;17.45;7.63;;;;;;;-3.86;75.65;97782.81;2075469;28;20205;-57
2022/02/28 03:59:56;;;;;;;13.75;6.95;;;;;;;-3.91;75.97;97787.03;2073877;28;20226;-57
2022/02/28 04:00:57;;;;;;;17.13;7.45;;;;;;;-3.88;76.22;97781.06;2073915;28;20194;-58
2022/02/28 04:01:59;;;;;;;18.45;7.93;;;;;;;-3.84;76.16;97778.56;2075553;28;20197;-57
2022/02/28 04:03:00;;;;;;;11.75;7.10;;;;;;;-3.85;76.09;97779.41;2074749;28;20218;-58
2022/02/28 04:04:03;;;;;;;16.58;7.70;;;;;;;-3.78;76.64;97783.72;2072981;28;20292;-58
2022/02/28 04:05:05;;;;;;;18.50;8.70;;;;;;;-3.80;77.18;97779.44;2073175;28;20715;-58
2022/02/28 04:06:08;;;;;;;14.27;7.43;;;;;;;-3.84;76.71;97783.69;2074180;28;20201;-57
2022/02/28 04:07:12;;;;;;;15.70;7.05;;;;;;;-3.82;76.88;97782.00;2078976;28;20280;-57
2022/02/28 04:08:15;;;;;;;14.32;7.20;;;;;;;-3.75;77.10;97788.00;2074907;28;20201;-58
2022/02/28 04:09:17;;;;;;;12.80;6.90;;;;;;;-3.90;77.16;97770.84;2075110;28;20202;-58
2022/02/28 04:10:18;;;;;;;12.43;7.00;;;;;;;-3.89;77.14;97785.34;2076292;28;20230;-58
2022/02/28 04:11:20;;;;;;;12.13;6.05;;;;;;;-3.73;76.58;97775.22;2076430;28;20197;-57
2022/02/28 04:12:21;;;;;;;14.45;7.20;;;;;;;-3.77;76.66;97780.31;2077786;28;20201;-58
2022/02/28 04:13:23;;;;;;;12.82;6.75;;;;;;;-3.94;77.21;97776.81;2078430;28;20186;-57
2022/02/28 04:14:25;;;;;;;13.05;6.75;;;;;;;-4.00;77.86;97786.97;2076675;28;20246;-57
2022/02/28 04:15:26;;;;;;;11.80;6.75;;;;;;;-3.95;77.53;97779.34;2078710;28;20212;-57
2022/02/28 04:16:28;;;;;;;15.75;7.70;;;;;;;-4.07;77.44;97775.84;2077698;28;20264;-57
2022/02/28 04:17:29;;;;;;;16.88;6.85;;;;;;;-3.94;77.39;97776.81;2079315;28;20698;-57
2022/02/28 04:18:31;;;;;;;14.55;6.47;;;;;;;-3.93;77.40;97769.97;2076595;28;20574;-57
2022/02/28 04:19:33;;;;;;;13.38;5.68;;;;;;;-3.78;76.97;97776.03;2077536;28;20231;-57
2022/02/28 04:20:34;;;;;;;9.27;5.53;;;;;;;-3.83;77.20;97775.16;2077465;28;20197;-58
2022/02/28 04:21:37;;;;;;;10.50;5.63;;;;;;;-3.91;77.46;97770.84;2076885;28;20289;-57
2022/02/28 04:22:39;;;;;;;11.82;6.18;;;;;;;-3.87;77.28;97770.00;2077686;28;20202;-58
2022/02/28 04:23:40;;;;;;;15.45;6.95;;;;;;;-3.79;77.29;97770.91;2078467;28;20205;-58
2022/02/28 04:24:43;;;;;;;11.85;5.85;;;;;;;-3.88;77.40;97774.28;2076139;28;20242;-57
2022/02/28 04:25:45;;;;;;;13.88;6.88;;;;;;;-3.96;77.53;97773.34;2073079;28;20209;-57
2022/02/28 04:26:46;;;;;;;13.98;6.43;;;;;;;-3.99;77.66;97779.31;2074746;28;20194;-58
2022/02/28 04:27:48;;;;;;;13.40;6.85;;;;;;;-4.02;77.57;97771.63;2075804;28;20204;-58
2022/02/28 04:28:49;;;;;;;11.15;6.65;;;;;;;-3.97;77.54;97769.94;2076319;28;20199;-58
2022/02/28 04:29:51;;;;;;;11.32;6.13;;;;;;;-3.80;77.46;97769.22;2076908;28;20576;-57
2022/02/28 04:30:52;;;;;;;9.70;6.25;;;;;;;-3.87;77.43;97773.41;2078181;28;20201;-58
2022/02/28 04:31:54;;;;;;;13.65;6.50;;;;;;;-3.83;77.20;97772.59;2077291;28;20194;-57
2022/02/28 04:32:59;;;;;;;13.20;6.38;;;;;;;-3.89;77.40;97775.09;2077747;28;20201;-57
2022/02/28 04:34:00;;;;;;;13.73;5.63;;;;;;;-3.91;77.71;97769.13;2077386;28;20633;-58
2022/02/28 04:35:02;;;;;;;12.85;6.28;;;;;;;-3.95;77.78;97763.97;2076134;28;20221;-57
2022/02/28 04:36:03;;;;;;;13.82;7.35;;;;;;;-4.00;77.64;97777.59;2078034;28;20193;-57
2022/02/28 04:37:05;;;;;;;13.43;6.40;;;;;;;-4.01;78.07;97775.03;2077315;28;20205;-58
2022/02/28 04:38:06;;;;;;;11.95;6.75;;;;;;;-4.05;78.08;97774.16;2077684;28;20197;-57
2022/02/28 04:39:10;;;;;;;12.38;6.20;;;;;;;-4.06;78.19;97776.69;2076468;28;20218;-58
2022/02/28 04:40:12;;;;;;;12.00;6.03;;;;;;;-4.09;78.23;97779.22;2076243;28;20225;-58
2022/02/28 04:41:13;;;;;;;11.70;7.20;;;;;;;-3.99;77.70;97768.22;2076978;28;20201;-57
2022/02/28 04:42:15;;;;;;;14.45;7.80;;;;;;;-3.95;77.67;97780.19;2077367;28;20194;-58
2022/02/28 04:43:16;;;;;;;9.02;5.90;;;;;;;-3.99;77.93;97771.63;2075742;28;20218;-58
2022/02/28 04:44:18;;;;;;;19.30;6.57;;;;;;;-3.99;77.75;97781.00;2075634;28;20283;-57
2022/02/28 04:45:20;;;;;;;16.75;7.80;;;;;;;-4.06;77.79;97781.81;2074973;28;20305;-58
2022/02/28 04:46:23;;;;;;;10.52;6.65;;;;;;;-4.20;78.11;97784.25;2074248;28;20194;-58
2022/02/28 04:47:25;;;;;;;14.57;6.38;;;;;;;-4.30;78.12;97779.91;2075425;28;20539;-57
2022/02/28 04:48:26;;;;;;;11.90;6.70;;;;;;;-4.38;78.48;97774.72;2072734;28;20209;-57
2022/02/28 04:49:28;;;;;;;14.05;7.90;;;;;;;-4.33;78.49;97779.88;2075410;28;20220;-58